createdAt,value
2018-06-20T00:02:08.608Z,99117.06
2018-06-20T00:04:37.648Z,99114.36
2018-06-20T00:07:06.846Z,99113.66
2018-06-20T00:09:36.047Z,99110.59
2018-06-20T00:12:05.246Z,99117.33
2018-06-20T00:14:34.394Z,99114.95
2018-06-20T00:17:03.540Z,99116.67
2018-06-20T00:19:32.950Z,99116.82
2018-06-20T00:22:02.138Z,99118.17
2018-06-20T00:24:31.454Z,99113.60
2018-06-20T00:27:00.431Z,99117.63
2018-06-20T00:29:29.626Z,99113.20
2018-06-20T00:31:58.570Z,99113.20
2018-06-20T00:34:28.127Z,99117.56
2018-06-20T00:36:57.347Z,99111.77
2018-06-20T00:39:26.523Z,99103.95
2018-06-20T00:41:55.515Z,99109.64
2018-06-20T00:44:24.713Z,99110.11
2018-06-20T00:46:53.124Z,99106.48
2018-06-20T00:49:21.498Z,99103.86
2018-06-20T00:51:50.576Z,99109.89
2018-06-20T00:54:19.423Z,99110.73
2018-06-20T00:56:47.944Z,99106.34
2018-06-20T00:59:16.307Z,99107.51
2018-06-20T01:01:44.715Z,99104.57
2018-06-20T01:04:13.209Z,99110.81
2018-06-20T01:06:41.739Z,99110.45
2018-06-20T01:09:11.050Z,99111.10
2018-06-20T01:11:39.785Z,99115.52
2018-06-20T01:14:08.254Z,99110.95
2018-06-20T01:16:36.887Z,99112.95
2018-06-20T01:19:05.351Z,99113.23
2018-06-20T01:21:34.298Z,99105.27
2018-06-20T01:24:02.971Z,99116.06
2018-06-20T01:26:31.410Z,99117.70
2018-06-20T01:29:00.032Z,99119.37
2018-06-20T01:31:28.680Z,99115.63
2018-06-20T01:33:57.374Z,99112.88
2018-06-20T01:36:25.798Z,99120.00
2018-06-20T01:38:54.230Z,99114.91
2018-06-20T01:41:22.702Z,99114.86
2018-06-20T01:43:51.922Z,99120.70
2018-06-20T01:46:20.337Z,99113.95
2018-06-20T01:48:48.735Z,99114.74
2018-06-20T01:51:17.258Z,99110.95
2018-06-20T01:53:45.772Z,99114.28
2018-06-20T02:03:01.581Z,99114.63
2018-06-20T02:05:30.201Z,99119.47
2018-06-20T02:07:58.622Z,99117.37
2018-06-20T02:10:27.046Z,99117.19
2018-06-20T02:12:55.531Z,99106.58
2018-06-20T02:15:24.134Z,99114.44
2018-06-20T02:17:52.593Z,99110.72
2018-06-20T02:20:20.995Z,99109.51
2018-06-20T02:22:49.439Z,99111.36
2018-06-20T02:25:17.859Z,99107.73
2018-06-20T02:27:46.389Z,99105.34
2018-06-20T02:30:14.824Z,99110.20
2018-06-20T02:32:43.390Z,99102.05
2018-06-20T02:35:12.398Z,99104.75
2018-06-20T02:37:41.242Z,99111.87
2018-06-20T02:40:09.820Z,99103.71
2018-06-20T02:42:38.245Z,99108.77
2018-06-20T02:45:06.715Z,99115.13
2018-06-20T02:47:44.956Z,99111.21
2018-06-20T02:50:14.344Z,99111.08
2018-06-20T02:52:43.016Z,99107.87
2018-06-20T02:55:11.646Z,99105.95
2018-06-20T02:57:40.326Z,99108.38
2018-06-20T03:00:08.858Z,99110.37
2018-06-20T03:02:37.335Z,99106.96
2018-06-20T03:05:05.781Z,99105.21
2018-06-20T03:07:34.842Z,99102.85
2018-06-20T03:10:03.701Z,99101.87
2018-06-20T03:12:32.106Z,99101.81
2018-06-20T03:15:00.567Z,99099.62
2018-06-20T03:17:29.391Z,99099.92
2018-06-20T03:19:57.884Z,99099.75
2018-06-20T03:22:26.340Z,99101.41
2018-06-20T03:24:55.338Z,99107.52
2018-06-20T03:27:24.368Z,99108.36
2018-06-20T03:29:52.724Z,99104.95
2018-06-20T03:32:21.320Z,99101.72
2018-06-20T03:34:49.778Z,99100.03
2018-06-20T03:37:18.274Z,99100.30
2018-06-20T03:39:47.072Z,99105.02
2018-06-20T03:42:15.665Z,99104.34
2018-06-20T03:44:44.138Z,99107.86
2018-06-20T03:47:13.514Z,99101.75
2018-06-20T03:49:42.023Z,99107.15
2018-06-20T03:52:10.513Z,99101.41
2018-06-20T03:54:38.954Z,99104.63
2018-06-20T03:57:07.333Z,99105.16
2018-06-20T03:59:35.807Z,99101.62
2018-06-20T04:02:04.339Z,99097.91
2018-06-20T04:04:32.779Z,99099.32
2018-06-20T04:07:01.199Z,99103.13
2018-06-20T04:09:29.753Z,99102.82
2018-06-20T04:11:59.080Z,99105.61
2018-06-20T04:14:27.818Z,99106.15
2018-06-20T04:16:56.344Z,99101.31
2018-06-20T04:19:24.976Z,99100.36
2018-06-20T04:21:53.410Z,99098.39
2018-06-20T04:24:22.108Z,99102.19
2018-06-20T04:26:50.579Z,99105.01
2018-06-20T04:29:19.117Z,99100.70
2018-06-20T04:31:48.225Z,99101.09
2018-06-20T04:34:16.705Z,99101.48
2018-06-20T04:36:45.138Z,99097.62
2018-06-20T04:39:13.630Z,99096.46
2018-06-20T04:41:42.078Z,99100.53
2018-06-20T04:44:10.517Z,99097.56
2018-06-20T04:46:38.919Z,99093.89
2018-06-20T04:49:07.286Z,99102.39
2018-06-20T04:51:35.678Z,99098.39
2018-06-20T04:54:04.175Z,99101.48
2018-06-20T04:56:33.029Z,99103.59
2018-06-20T04:59:01.407Z,99109.09
2018-06-20T05:01:29.797Z,99112.17
2018-06-20T05:03:58.505Z,99102.43
2018-06-20T05:06:27.083Z,99105.88
2018-06-20T05:08:55.557Z,99106.94
2018-06-20T05:11:24.287Z,99101.75
2018-06-20T05:13:52.790Z,99107.68
2018-06-20T05:16:21.261Z,99104.68
2018-06-20T05:18:49.809Z,99114.19
2018-06-20T05:21:18.457Z,99109.98
2018-06-20T05:23:47.323Z,99114.08
2018-06-20T05:26:15.730Z,99113.60
2018-06-20T05:28:44.138Z,99116.34
2018-06-20T05:31:12.546Z,99118.75
2018-06-20T05:33:41.074Z,99120.79
2018-06-20T05:36:09.471Z,99121.48
2018-06-20T05:38:37.861Z,99119.13
2018-06-20T05:41:06.561Z,99121.84
2018-06-20T05:43:35.349Z,99125.26
2018-06-20T05:46:03.824Z,99120.10
2018-06-20T05:48:32.322Z,99126.05
2018-06-20T05:51:00.754Z,99128.92
2018-06-20T05:53:29.363Z,99126.58
2018-06-20T05:55:57.866Z,99123.88
2018-06-20T05:58:26.450Z,99123.05
2018-06-20T06:00:55.808Z,99121.70
2018-06-20T06:03:24.363Z,99120.01
2018-06-20T06:06:09.238Z,99119.99
2018-06-20T06:08:37.677Z,99114.26
2018-06-20T06:11:06.294Z,99115.77
2018-06-20T06:13:34.723Z,99118.66
2018-06-20T06:16:03.387Z,99118.65
2018-06-20T06:18:32.002Z,99111.21
2018-06-20T06:21:00.662Z,99113.22
2018-06-20T06:23:29.222Z,99112.89
2018-06-20T06:25:58.089Z,99116.30
2018-06-20T06:28:27.354Z,99116.30
2018-06-20T06:30:55.819Z,99115.10
2018-06-20T06:33:24.708Z,99113.23
2018-06-20T06:35:53.702Z,99111.50
2018-06-20T06:38:22.090Z,99105.91
2018-06-20T06:40:50.478Z,99108.77
2018-06-20T06:43:19.035Z,99111.13
2018-06-20T06:45:48.925Z,99111.06
2018-06-20T06:48:17.623Z,99111.38
2018-06-20T06:50:46.166Z,99104.74
2018-06-20T06:53:14.689Z,99107.93
2018-06-20T06:55:43.166Z,99103.44
2018-06-20T06:58:11.692Z,99108.67
2018-06-20T07:00:40.909Z,99108.30
2018-06-20T07:03:09.411Z,99112.98
2018-06-20T07:05:37.838Z,99112.15
2018-06-20T07:08:06.207Z,99115.80
2018-06-20T07:10:34.642Z,99112.72
2018-06-20T07:13:03.112Z,99107.95
2018-06-20T07:15:31.588Z,99104.55
2018-06-20T07:18:00.189Z,99114.67
2018-06-20T07:20:28.663Z,99102.37
2018-06-20T07:22:57.122Z,99111.80
2018-06-20T07:25:25.538Z,99108.36
2018-06-20T07:27:53.966Z,99105.93
2018-06-20T07:30:22.387Z,99099.58
2018-06-20T07:32:50.823Z,99100.07
2018-06-20T07:35:20.295Z,99105.80
2018-06-20T07:37:48.892Z,99108.44
2018-06-20T07:40:17.327Z,99102.81
2018-06-20T07:42:45.822Z,99107.25
2018-06-20T07:45:14.354Z,99100.32
2018-06-20T07:47:42.734Z,99102.59
2018-06-20T07:50:11.283Z,99096.52
2018-06-20T07:52:39.744Z,99096.23
2018-06-20T07:55:08.484Z,99099.66
2018-06-20T07:57:36.929Z,99093.90
2018-06-20T08:00:14.522Z,99091.91
2018-06-20T08:02:59.565Z,99089.00
2018-06-20T08:05:33.389Z,99084.55
2018-06-20T08:08:07.162Z,99085.58
2018-06-20T08:10:40.890Z,99081.28
2018-06-20T08:13:14.626Z,99087.75
2018-06-20T08:15:48.202Z,99085.06
2018-06-20T08:18:22.010Z,99086.37
2018-06-20T08:20:50.510Z,99080.30
2018-06-20T08:23:19.033Z,99073.61
2018-06-20T08:25:47.606Z,99070.13
2018-06-20T08:28:16.214Z,99074.73
2018-06-20T08:30:44.798Z,99067.38
2018-06-20T08:33:13.373Z,99066.34
2018-06-20T08:35:41.949Z,99056.78
2018-06-20T08:38:10.338Z,99057.14
2018-06-20T08:40:38.719Z,99059.01
2018-06-20T08:43:07.138Z,99061.84
2018-06-20T08:45:35.794Z,99056.56
2018-06-20T08:48:04.267Z,99054.69
2018-06-20T08:50:32.772Z,99053.90
2018-06-20T08:53:01.291Z,99055.61
2018-06-20T08:55:29.952Z,99053.44
2018-06-20T08:57:59.246Z,99051.92
2018-06-20T09:00:33.022Z,99043.31
2018-06-20T09:03:01.581Z,99045.34
2018-06-20T09:05:35.261Z,99042.81
2018-06-20T09:08:09.206Z,99046.19
2018-06-20T09:10:42.836Z,99043.45
2018-06-20T09:13:16.630Z,99040.41
2018-06-20T09:15:50.318Z,99042.17
2018-06-20T09:18:23.960Z,99043.97
2018-06-20T09:20:52.437Z,99044.70
2018-06-20T09:23:20.965Z,99045.23
2018-06-20T09:25:49.387Z,99041.00
2018-06-20T09:28:17.893Z,99035.41
2018-06-20T09:30:46.334Z,99037.88
2018-06-20T09:33:15.284Z,99038.26
2018-06-20T09:35:43.800Z,99035.77
2018-06-20T09:38:12.270Z,99037.48
2018-06-20T09:40:42.103Z,99036.41
2018-06-20T09:43:10.530Z,99034.96
2018-06-20T09:45:39.153Z,99032.77
2018-06-20T09:48:07.649Z,99032.05
2018-06-20T09:50:41.173Z,99035.41
2018-06-20T09:53:09.641Z,99038.41
2018-06-20T09:55:38.162Z,99038.73
2018-06-20T09:58:06.622Z,99039.03
2018-06-20T10:00:40.436Z,99037.00
2018-06-20T10:03:14.039Z,99030.94
2018-06-20T10:05:47.816Z,99030.92
2018-06-20T10:08:21.678Z,99032.39
2018-06-20T10:10:55.507Z,99026.14
2018-06-20T10:13:26.243Z,99023.72
2018-06-20T10:15:54.962Z,99023.55
2018-06-20T10:18:24.034Z,99020.86
2018-06-20T10:20:52.493Z,99020.51
2018-06-20T10:23:20.946Z,99021.44
2018-06-20T10:25:49.446Z,99015.41
2018-06-20T10:28:17.905Z,99017.74
2018-06-20T10:30:46.390Z,99020.34
2018-06-20T10:33:14.931Z,99010.20
2018-06-20T10:35:43.493Z,99009.18
2018-06-20T10:38:11.966Z,99008.54
2018-06-20T10:40:40.614Z,99002.97
2018-06-20T10:43:09.069Z,99009.09
2018-06-20T10:45:42.933Z,99007.59
2018-06-20T10:48:13.514Z,99006.01
2018-06-20T10:50:42.422Z,99004.53
2018-06-20T10:53:11.495Z,99005.64
2018-06-20T10:55:40.627Z,99001.48
2018-06-20T10:58:14.401Z,99000.16
2018-06-20T11:00:48.251Z,98995.98
2018-06-20T11:03:21.957Z,98989.86
2018-06-20T11:05:55.769Z,98990.33
2018-06-20T11:08:29.658Z,98990.16
2018-06-20T11:11:03.259Z,98988.42
2018-06-20T11:13:31.702Z,98977.09
2018-06-20T11:16:00.887Z,98977.67
2018-06-20T11:18:29.391Z,98978.66
2018-06-20T11:20:58.719Z,98976.20
2018-06-20T11:23:27.660Z,98972.37
2018-06-20T11:25:56.258Z,98967.26
2018-06-20T11:28:24.773Z,98966.13
2018-06-20T11:30:53.428Z,98962.06
2018-06-20T11:33:21.821Z,98956.31
2018-06-20T11:35:50.353Z,98954.97
2018-06-20T11:38:18.780Z,98958.72
2018-06-20T11:40:47.366Z,98957.97
2018-06-20T11:43:15.980Z,98950.07
2018-06-20T11:45:50.126Z,98938.80
2018-06-20T11:48:18.716Z,98939.95
2018-06-20T11:50:47.141Z,98929.02
2018-06-20T11:53:15.591Z,98933.39
2018-06-20T11:55:45.394Z,98939.55
2018-06-20T11:58:19.269Z,98932.64
2018-06-20T12:00:52.918Z,98931.02
2018-06-20T12:03:26.721Z,98921.23
2018-06-20T12:06:00.629Z,98927.02
2018-06-20T12:08:34.386Z,98921.19
2018-06-20T12:11:08.032Z,98915.42
2018-06-20T12:13:41.923Z,98918.92
2018-06-20T12:16:15.729Z,98910.42
2018-06-20T12:18:49.542Z,98911.61
2018-06-20T12:21:23.348Z,98912.52
2018-06-20T12:23:58.167Z,98900.60
2018-06-20T12:26:32.090Z,98905.25
2018-06-20T12:29:05.617Z,98896.65
2018-06-20T12:31:39.678Z,98896.79
2018-06-20T12:34:13.423Z,98897.97
2018-06-20T12:36:47.190Z,98890.61
2018-06-20T12:39:14.747Z,98893.33
2018-06-20T12:41:48.391Z,98891.76
2018-06-20T12:44:22.141Z,98894.95
2018-06-20T12:47:05.488Z,98883.77
2018-06-20T12:49:36.203Z,98881.47
2018-06-20T12:52:04.957Z,98874.70
2018-06-20T12:54:33.928Z,98873.98
2018-06-20T12:57:02.430Z,98877.52
2018-06-20T12:59:30.867Z,98872.42
2018-06-20T13:01:59.391Z,98864.36
2018-06-20T13:04:27.834Z,98873.76
2018-06-20T13:06:56.548Z,98869.88
2018-06-20T13:09:25.019Z,98858.10
2018-06-20T13:11:53.411Z,98863.52
2018-06-20T13:14:21.826Z,98862.67
2018-06-20T13:16:50.699Z,98851.36
2018-06-20T13:19:19.331Z,98855.59
2018-06-20T13:21:48.043Z,98856.30
2018-06-20T13:24:16.476Z,98854.31
2018-06-20T13:26:45.117Z,98851.63
2018-06-20T13:29:13.862Z,98843.50
2018-06-20T13:31:47.622Z,98834.61
2018-06-20T13:34:21.906Z,98831.62
2018-06-20T13:36:55.679Z,98829.23
2018-06-20T13:39:29.407Z,98829.25
2018-06-20T13:42:02.515Z,98823.22
2018-06-20T13:44:31.050Z,98826.91
2018-06-20T13:47:04.918Z,98821.63
2018-06-20T13:49:33.912Z,98814.02
2018-06-20T13:52:02.371Z,98813.44
2018-06-20T13:54:31.193Z,98808.86
2018-06-20T13:56:59.585Z,98805.50
2018-06-20T13:59:28.596Z,98806.56
2018-06-20T14:01:57.126Z,98809.23
2018-06-20T14:04:25.525Z,98806.26
2018-06-20T14:06:54.083Z,98805.87
2018-06-20T14:09:22.497Z,98793.69
2018-06-20T14:11:50.959Z,98796.97
2018-06-20T14:14:19.394Z,98789.47
2018-06-20T14:16:47.864Z,98797.10
2018-06-20T14:19:16.508Z,98789.63
2018-06-20T14:21:45.038Z,98787.57
2018-06-20T14:24:13.578Z,98790.60
2018-06-20T14:26:42.271Z,98783.27
2018-06-20T14:29:11.258Z,98791.02
2018-06-20T14:31:44.750Z,98786.95
2018-06-20T14:34:18.537Z,98773.33
2018-06-20T14:36:52.062Z,98775.61
2018-06-20T14:40:28.667Z,98773.91
2018-06-20T14:43:03.568Z,98776.47
2018-06-20T14:45:37.262Z,98765.99
2018-06-20T14:48:05.636Z,98767.48
2018-06-20T14:50:34.164Z,98761.64
2018-06-20T14:53:02.638Z,98761.65
2018-06-20T14:55:31.161Z,98761.14
2018-06-20T14:57:59.769Z,98763.62
2018-06-20T15:00:28.358Z,98757.13
2018-06-20T15:02:56.831Z,98761.30
2018-06-20T15:05:25.415Z,98760.58
2018-06-20T15:07:53.827Z,98756.78
2018-06-20T15:10:22.618Z,98750.42
2018-06-20T15:12:51.258Z,98747.62
2018-06-20T15:15:19.697Z,98744.13
2018-06-20T15:17:48.157Z,98743.56
2018-06-20T15:20:16.668Z,98744.02
2018-06-20T15:22:47.579Z,98737.89
2018-06-20T15:25:17.254Z,98739.43
2018-06-20T15:27:51.039Z,98734.71
2018-06-20T15:30:24.711Z,98726.41
2018-06-20T15:32:58.436Z,98721.91
2018-06-20T15:35:32.246Z,98725.64
2018-06-20T15:38:05.697Z,98721.06
2018-06-20T15:40:34.098Z,98720.34
2018-06-20T15:43:02.571Z,98717.14
2018-06-20T15:45:31.083Z,98717.75
2018-06-20T15:47:59.716Z,98708.76
2018-06-20T15:50:28.218Z,98704.73
2018-06-20T15:52:56.618Z,98709.97
2018-06-20T15:55:25.111Z,98704.25
2018-06-20T15:57:54.799Z,98701.66
2018-06-20T16:00:23.333Z,98701.59
2018-06-20T16:02:51.786Z,98699.55
2018-06-20T16:05:20.273Z,98704.72
2018-06-20T16:07:48.907Z,98696.50
2018-06-20T16:10:18.740Z,98697.87
2018-06-20T16:15:48.972Z,98691.93
2018-06-20T16:18:20.985Z,98700.61
2018-06-20T16:21:16.021Z,98702.00
2018-06-20T16:25:44.080Z,98691.55
2018-06-20T16:28:24.446Z,98693.02
2018-06-20T16:30:54.241Z,98686.34
2018-06-20T16:33:31.645Z,98686.97
2018-06-20T16:36:00.068Z,98690.52
2018-06-20T16:38:28.718Z,98681.20
2018-06-20T16:40:57.307Z,98673.38
2018-06-20T16:43:25.710Z,98675.94
2018-06-20T16:47:34.907Z,98668.61
2018-06-20T16:50:03.333Z,98679.10
2018-06-20T16:52:31.850Z,98680.60
2018-06-20T16:55:05.667Z,98687.67
2018-06-20T16:57:34.148Z,98680.34
2018-06-20T17:00:02.699Z,98683.88
2018-06-20T17:02:34.609Z,98682.70
2018-06-20T17:05:03.162Z,98681.13
2018-06-20T17:07:31.759Z,98681.98
2018-06-20T17:10:00.251Z,98683.47
2018-06-20T17:12:34.058Z,98681.73
2018-06-20T17:15:07.770Z,98679.27
2018-06-20T17:17:41.619Z,98676.94
2018-06-20T17:20:15.415Z,98679.56
2018-06-20T17:22:49.295Z,98670.81
2018-06-20T17:25:25.300Z,98669.05
2018-06-20T17:27:53.723Z,98663.47
2018-06-20T17:30:22.129Z,98668.95
2018-06-20T17:32:50.693Z,98661.23
2018-06-20T17:35:19.336Z,98663.44
2018-06-20T17:37:47.779Z,98664.47
2018-06-20T17:40:16.615Z,98662.39
2018-06-20T17:42:45.133Z,98666.83
2018-06-20T17:45:13.808Z,98663.54
2018-06-20T17:47:42.443Z,98657.60
2018-06-20T17:50:11.279Z,98656.58
2018-06-20T17:52:39.731Z,98652.68
2018-06-20T17:55:08.519Z,98655.34
2018-06-20T17:57:37.347Z,98654.42
2018-06-20T18:00:05.858Z,98652.78
2018-06-20T18:02:34.305Z,98650.73
2018-06-20T18:05:07.937Z,98644.70
2018-06-20T18:07:41.971Z,98642.78
2018-06-20T18:10:15.779Z,98647.56
2018-06-20T18:12:49.520Z,98633.62
2018-06-20T18:15:23.447Z,98633.28
2018-06-20T18:17:51.881Z,98640.02
2018-06-20T18:20:20.335Z,98637.61
2018-06-20T18:22:48.825Z,98634.50
2018-06-20T18:25:17.340Z,98633.46
2018-06-20T18:27:45.814Z,98628.05
2018-06-20T18:30:14.438Z,98634.11
2018-06-20T18:32:42.838Z,98638.49
2018-06-20T18:35:11.423Z,98629.69
2018-06-20T18:37:39.996Z,98631.30
2018-06-20T18:40:10.214Z,98639.39
2018-06-20T18:42:38.862Z,98636.30
2018-06-20T18:45:07.558Z,98630.61
2018-06-20T18:47:41.402Z,98634.84
2018-06-20T18:50:10.446Z,98642.34
2018-06-20T18:52:38.902Z,98640.95
2018-06-20T18:55:07.436Z,98636.30
2018-06-20T18:57:41.306Z,98636.94
2018-06-20T19:00:15.118Z,98639.20
2018-06-20T19:02:48.716Z,98640.10
2018-06-20T19:05:22.626Z,98641.19
2018-06-20T19:07:56.482Z,98649.53
2018-06-20T19:10:24.970Z,98651.75
2018-06-20T19:12:53.589Z,98649.03
2018-06-20T19:15:22.027Z,98645.67
2018-06-20T19:17:50.491Z,98653.91
2018-06-20T19:20:19.030Z,98644.21
2018-06-20T19:22:47.526Z,98643.36
2018-06-20T19:25:16.106Z,98654.63
2018-06-20T19:27:44.847Z,98656.88
2018-06-20T19:30:13.466Z,98654.02
2018-06-20T19:32:41.874Z,98659.16
2018-06-20T19:35:10.278Z,98664.77
2018-06-20T19:37:38.959Z,98660.55
2018-06-20T19:40:07.476Z,98663.56
2018-06-20T19:42:36.126Z,98662.16
2018-06-20T19:45:04.743Z,98662.17
2018-06-20T19:47:33.211Z,98665.24
2018-06-20T19:50:01.650Z,98670.64
2018-06-20T19:52:31.054Z,98669.48
2018-06-20T19:54:59.522Z,98680.25
2018-06-20T19:57:28.107Z,98679.41
2018-06-20T19:59:56.641Z,98678.91
2018-06-20T20:02:25.178Z,98687.78
2018-06-20T20:04:53.578Z,98686.23
2018-06-20T20:07:22.074Z,98689.25
2018-06-20T20:09:50.570Z,98693.62
2018-06-20T20:12:19.030Z,98690.88
2018-06-20T20:14:47.622Z,98695.47
2018-06-20T20:17:16.075Z,98693.65
2018-06-20T20:19:44.570Z,98696.38
2018-06-20T20:22:13.191Z,98697.48
2018-06-20T20:24:44.574Z,98693.23
2018-06-20T20:27:13.552Z,98694.73
2018-06-20T20:29:42.008Z,98691.61
2018-06-20T20:32:11.670Z,98694.48
2018-06-20T20:34:40.087Z,98706.49
2018-06-20T20:37:08.488Z,98708.83
2018-06-20T20:39:36.906Z,98707.96
2018-06-20T20:42:06.804Z,98708.42
2018-06-20T20:44:35.269Z,98706.09
2018-06-20T20:47:03.754Z,98709.25
2018-06-20T20:49:32.400Z,98715.15
2018-06-20T20:52:00.806Z,98716.48
2018-06-20T20:54:29.277Z,98715.56
2018-06-20T20:56:58.842Z,98717.02
2018-06-20T20:59:27.239Z,98725.43
2018-06-20T21:01:56.147Z,98727.01
2018-06-20T21:04:24.623Z,98715.66
2018-06-20T21:06:53.240Z,98725.00
2018-06-20T21:09:21.665Z,98726.64
2018-06-20T21:11:50.198Z,98728.02
2018-06-20T21:14:18.731Z,98727.45
2018-06-20T21:16:47.267Z,98727.20
2018-06-20T21:19:15.731Z,98720.91
2018-06-20T21:21:44.231Z,98722.66
2018-06-20T21:24:12.787Z,98720.77
2018-06-20T21:26:41.341Z,98718.16
2018-06-20T21:29:09.862Z,98716.98
2018-06-20T21:31:38.322Z,98714.14
2018-06-20T21:34:06.813Z,98715.28
2018-06-20T21:36:35.294Z,98715.36
2018-06-20T21:39:04.158Z,98715.54
2018-06-20T21:41:32.567Z,98715.41
2018-06-20T21:44:01.038Z,98716.14
2018-06-20T21:46:29.829Z,98706.55
2018-06-20T21:48:58.380Z,98712.61
2018-06-20T21:51:26.852Z,98715.97
2018-06-20T21:53:55.318Z,98716.88
2018-06-20T21:56:23.773Z,98712.25
2018-06-20T21:58:52.158Z,98708.23
2018-06-20T22:01:20.593Z,98712.52
2018-06-20T22:03:48.998Z,98715.46
2018-06-20T22:06:17.465Z,98710.80
2018-06-20T22:08:45.958Z,98706.70
2018-06-20T22:11:14.630Z,98707.42
2018-06-20T22:13:43.131Z,98704.27
2018-06-20T22:16:11.594Z,98698.05
2018-06-20T22:18:40.075Z,98707.16
2018-06-20T22:21:08.539Z,98709.95
2018-06-20T22:23:36.938Z,98709.47
2018-06-20T22:26:05.325Z,98705.23
2018-06-20T22:28:33.991Z,98709.78
2018-06-20T22:31:02.563Z,98706.81
2018-06-20T22:33:30.999Z,98708.58
2018-06-20T22:35:59.458Z,98705.91
2018-06-20T22:38:27.978Z,98703.03
2018-06-20T22:40:56.406Z,98698.72
2018-06-20T22:43:24.878Z,98698.78
2018-06-20T22:45:53.267Z,98694.31
2018-06-20T22:48:21.726Z,98693.48
2018-06-20T22:50:50.142Z,98692.83
2018-06-20T22:53:18.596Z,98697.13
2018-06-20T22:55:46.991Z,98697.96
2018-06-20T22:58:15.602Z,98696.91
2018-06-20T23:00:44.102Z,98694.92
2018-06-20T23:03:12.547Z,98695.29
2018-06-20T23:05:41.070Z,98688.63
2018-06-20T23:08:09.497Z,98694.07
2018-06-20T23:10:38.119Z,98687.85
2018-06-20T23:13:06.482Z,98684.30
2018-06-20T23:15:34.951Z,98696.14
2018-06-20T23:18:03.750Z,98687.19
2018-06-20T23:20:32.344Z,98680.27
2018-06-20T23:23:00.786Z,98681.48
2018-06-20T23:25:29.456Z,98678.42
2018-06-20T23:27:57.985Z,98683.25
2018-06-20T23:30:26.471Z,98679.12
2018-06-20T23:32:54.914Z,98678.64
2018-06-20T23:35:23.326Z,98678.32
2018-06-20T23:37:51.788Z,98674.98
2018-06-20T23:40:20.279Z,98674.09
2018-06-20T23:42:48.752Z,98666.89
2018-06-20T23:45:17.246Z,98670.09
2018-06-20T23:47:45.718Z,98670.83
2018-06-20T23:50:14.256Z,98669.20
2018-06-20T23:52:42.709Z,98670.07
2018-06-20T23:55:11.170Z,98667.95
2018-06-20T23:57:39.641Z,98672.06
